Time;durP1;ratioP1;P1;durP2;ratioP2;P2;SDS_P1;SDS_P2;PMS_P1;PMS_P2;Temp;Humidity;BMP_temperature;BMP_pressure;BME280_temperature;BME280_humidity;BME280_pressure;Samples;Min_cycle;Max_cycle;Signal;HPM_P1;HPM_P2
2023/08/13 00:02:08;;;;;;;3.00;2.78;;;;;;;20.31;66.35;64104.19;5104652;28;20212;-79
2023/08/13 00:04:35;;;;;;;2.70;2.55;;;;;;;20.34;66.67;64102.16;5096376;28;20246;-79
2023/08/13 00:07:03;;;;;;;3.13;2.92;;;;;;;20.27;69.69;64096.91;5096400;28;20521;-79
2023/08/13 00:09:31;;;;;;;3.50;3.25;;;;;;;20.27;67.81;64100.03;5108024;28;20214;-79
2023/08/13 00:11:58;;;;;;;3.50;3.20;;;;;;;20.21;67.05;64093.75;5105304;28;20258;-78
2023/08/13 00:14:25;;;;;;;3.40;2.63;;;;;;;20.11;67.59;64080.19;5109481;28;20225;-79
2023/08/13 00:16:52;;;;;;;3.30;2.50;;;;;;;20.25;67.79;64095.34;5104494;28;20256;-78
2023/08/13 00:19:19;;;;;;;2.50;2.40;;;;;;;20.11;68.11;64083.31;5088983;28;20433;-79
2023/08/13 00:21:46;;;;;;;2.90;2.70;;;;;;;20.19;68.24;64086.00;5103424;28;20195;-79
2023/08/13 00:24:14;;;;;;;3.45;2.80;;;;;;;20.17;68.44;64089.06;5110363;28;20258;-80
2023/08/13 00:26:43;;;;;;;3.13;3.00;;;;;;;20.11;68.20;64077.63;5101297;28;20544;-80
2023/08/13 00:29:10;;;;;;;2.90;2.70;;;;;;;20.06;68.30;64069.81;5108191;28;20207;-80
2023/08/13 00:31:38;;;;;;;3.22;3.03;;;;;;;19.90;67.48;64058.28;5092974;28;20188;-79
2023/08/13 00:34:05;;;;;;;3.00;2.47;;;;;;;20.01;68.22;64067.72;5090193;28;20223;-82
2023/08/13 00:36:33;;;;;;;2.75;2.35;;;;;;;19.94;69.40;64057.81;5093255;28;20426;-81
2023/08/13 00:39:00;;;;;;;3.03;2.75;;;;;;;19.97;70.50;64065.59;5096005;28;20215;-82
2023/08/13 00:41:27;;;;;;;3.08;2.95;;;;;;;19.91;71.18;64059.88;5108497;28;20196;-78
2023/08/13 00:43:56;;;;;;;4.13;2.88;;;;;;;19.88;71.15;64059.31;5110170;28;20260;-79
2023/08/13 00:46:26;;;;;;;2.30;2.20;;;;;;;19.77;71.47;64045.25;5111638;28;20203;-78
2023/08/13 00:48:58;;;;;;;3.08;2.85;;;;;;;19.76;72.16;64046.78;5102816;28;20246;-81
2023/08/13 00:51:25;;;;;;;2.63;2.42;;;;;;;19.71;72.06;64035.91;5108522;28;20232;-80
2023/08/13 00:53:54;;;;;;;3.13;2.92;;;;;;;19.61;71.57;64033.72;5106120;28;20298;-80
2023/08/13 00:56:23;;;;;;;2.95;2.67;;;;;;;19.61;70.80;64022.88;5092929;28;20200;-79
2023/08/13 00:58:51;;;;;;;3.97;2.97;;;;;;;19.58;71.29;64028.03;5107544;28;20230;-78
2023/08/13 01:01:19;;;;;;;3.28;2.65;;;;;;;19.52;72.51;64019.69;5110227;28;20231;-79
2023/08/13 01:03:47;;;;;;;2.78;2.67;;;;;;;19.58;71.89;64025.44;5092039;28;20393;-81
2023/08/13 01:06:21;;;;;;;3.03;2.92;;;;;;;19.50;72.34;64022.25;5099906;28;20271;-81
2023/08/13 01:08:57;;;;;;;3.17;2.97;;;;;;;19.36;72.44;64003.00;5104692;28;20223;-80
2023/08/13 01:11:35;;;;;;;2.80;2.70;;;;;;;19.22;75.16;63990.97;5108540;28;20221;-79
2023/08/13 01:14:15;;;;;;;2.97;2.88;;;;;;;19.26;76.22;63992.03;5102580;28;20250;-80
2023/08/13 01:16:44;;;;;;;3.40;3.10;;;;;;;19.20;76.24;63988.38;5099436;28;20211;-79
2023/08/13 01:19:13;;;;;;;2.97;2.83;;;;;;;19.10;77.25;63973.28;5111185;28;20215;-79
2023/08/13 01:21:41;;;;;;;4.07;3.35;;;;;;;19.07;77.93;63974.81;5104451;28;20281;-79
2023/08/13 01:24:12;;;;;;;3.20;3.00;;;;;;;18.93;78.24;63962.81;5089260;28;20258;-79
2023/08/13 01:26:49;;;;;;;3.72;2.90;;;;;;;18.81;79.28;63945.13;5095365;28;20270;-78
2023/08/13 01:29:25;;;;;;;3.75;3.15;;;;;;;18.78;80.26;63942.53;5112073;28;20230;-79
2023/08/13 01:31:58;;;;;;;2.95;2.80;;;;;;;18.77;80.98;63940.97;5095413;28;20389;-79
2023/08/13 01:34:26;;;;;;;3.20;3.03;;;;;;;18.73;81.06;63936.78;5095500;28;20220;-78
2023/08/13 01:36:54;;;;;;;2.95;2.75;;;;;;;18.60;81.51;63920.66;5087896;28;20196;-79
2023/08/13 01:39:23;;;;;;;3.33;3.13;;;;;;;18.50;84.22;63913.34;5087651;28;20287;-78
2023/08/13 01:41:53;;;;;;;4.50;2.88;;;;;;;18.47;83.67;63910.22;5110090;28;20202;-79
2023/08/13 01:44:20;;;;;;;3.30;3.10;;;;;;;18.39;83.83;63904.97;5090988;28;20212;-80
2023/08/13 01:46:48;;;;;;;3.15;2.97;;;;;;;18.31;84.88;63893.50;5091270;28;20200;-79
2023/08/13 01:49:19;;;;;;;3.53;3.30;;;;;;;18.30;86.01;63889.91;5109389;28;20222;-79
2023/08/13 01:51:46;;;;;;;4.93;3.13;;;;;;;18.23;86.68;63888.28;5108688;28;20211;-80
2023/08/13 01:54:14;;;;;;;3.30;3.10;;;;;;;18.11;88.22;63875.25;5091085;28;20227;-80
2023/08/13 01:56:43;;;;;;;3.13;2.97;;;;;;;18.08;88.01;63870.09;5113585;28;20187;-79
2023/08/13 01:59:10;;;;;;;3.22;3.13;;;;;;;18.00;88.41;63861.75;5096444;28;20232;-78
2023/08/13 02:01:37;;;;;;;3.92;3.72;;;;;;;17.99;87.57;63863.28;5090735;28;20211;-80
2023/08/13 02:04:05;;;;;;;3.50;3.30;;;;;;;17.86;88.19;63844.06;5093026;28;20219;-79
2023/08/13 02:06:35;;;;;;;3.80;3.50;;;;;;;17.89;87.97;63852.88;5090668;28;20234;-80
2023/08/13 02:09:04;;;;;;;3.55;3.35;;;;;;;17.80;88.80;63837.81;5109027;28;20230;-80
2023/08/13 02:11:31;;;;;;;3.30;3.10;;;;;;;17.73;89.63;63833.09;5114657;28;20196;-79
2023/08/13 02:14:00;;;;;;;3.45;3.25;;;;;;;17.68;90.54;63828.41;5111288;28;20291;-79
2023/08/13 02:16:28;;;;;;;3.72;3.50;;;;;;;17.58;91.58;63812.34;5102336;28;20200;-79
2023/08/13 02:18:55;;;;;;;6.93;3.05;;;;;;;17.54;92.03;63810.72;5096228;28;20215;-78
2023/08/13 02:21:22;;;;;;;3.55;3.22;;;;;;;17.46;92.22;63802.94;5102299;28;20199;-79
2023/08/13 02:23:50;;;;;;;3.17;2.97;;;;;;;17.43;94.88;63807.00;5109425;28;20223;-78
2023/08/13 02:26:17;;;;;;;3.72;3.42;;;;;;;17.24;97.23;63785.66;5110393;28;20195;-81
2023/08/13 02:28:45;;;;;;;2.90;2.80;;;;;;;17.26;97.23;63787.22;5108580;28;20220;-80
2023/08/13 02:31:15;;;;;;;3.08;2.97;;;;;;;17.19;96.72;63774.78;5110827;28;20437;-81
2023/08/13 02:33:42;;;;;;;5.03;3.45;;;;;;;17.14;96.73;63772.69;5106592;28;20240;-78
2023/08/13 02:36:09;;;;;;;3.83;3.63;;;;;;;17.12;96.77;63770.09;5092852;28;20274;-79
2023/08/13 02:38:35;;;;;;;4.00;3.78;;;;;;;17.13;97.26;63771.13;5112105;28;20215;-80
2023/08/13 02:41:03;;;;;;;3.92;3.20;;;;;;;17.12;96.57;63765.47;5113262;28;20268;-79
2023/08/13 02:43:34;;;;;;;3.72;3.42;;;;;;;17.10;96.00;63770.59;5099643;28;20222;-79
2023/08/13 02:46:01;;;;;;;4.18;3.88;;;;;;;17.03;95.74;63756.09;5089946;28;20191;-78
2023/08/13 02:48:29;;;;;;;3.88;3.58;;;;;;;17.07;95.33;63762.31;5089559;28;20235;-77
2023/08/13 02:50:56;;;;;;;6.78;3.97;;;;;;;17.05;95.88;63760.25;5092360;28;20191;-80
2023/08/13 02:53:23;;;;;;;4.43;3.13;;;;;;;17.05;95.57;63760.25;5090182;28;20536;-79
2023/08/13 02:55:51;;;;;;;3.67;3.47;;;;;;;17.04;95.36;63759.19;5090933;28;20212;-77
2023/08/13 02:58:18;;;;;;;3.53;3.33;;;;;;;17.01;95.60;63761.75;5090269;28;20212;-79
2023/08/13 03:00:45;;;;;;;5.97;3.63;;;;;;;16.97;95.44;63759.63;5092756;28;20390;-78
2023/08/13 03:03:12;;;;;;;5.57;3.58;;;;;;;16.88;95.86;63745.63;5106507;28;20222;-78
2023/08/13 03:05:42;;;;;;;4.20;3.85;;;;;;;16.94;95.72;63746.22;5111096;28;20213;-80
2023/08/13 03:08:10;;;;;;;4.20;3.83;;;;;;;17.02;95.19;63757.09;5111743;28;20208;-79
2023/08/13 03:10:37;;;;;;;4.07;3.72;;;;;;;16.93;95.74;63752.88;5100218;28;20207;-79
2023/08/13 03:13:05;;;;;;;5.43;4.07;;;;;;;16.81;96.92;63738.34;5103810;28;20249;-80
2023/08/13 03:15:32;;;;;;;4.75;4.05;;;;;;;16.89;96.31;63749.25;5105796;28;20259;-79
2023/08/13 03:17:59;;;;;;;7.00;3.92;;;;;;;16.84;97.00;63738.88;5110519;28;20261;-80
2023/08/13 03:20:26;;;;;;;3.55;3.35;;;;;;;16.93;97.35;63750.31;5100856;28;20203;-78
2023/08/13 03:22:55;;;;;;;4.30;4.00;;;;;;;16.87;97.58;63747.16;5093466;28;20306;-79
2023/08/13 03:25:21;;;;;;;6.30;4.00;;;;;;;16.81;98.53;63740.38;5092556;28;20200;-78
2023/08/13 03:27:50;;;;;;;4.18;3.88;;;;;;;16.80;99.24;63734.75;5087521;28;20200;-78
2023/08/13 03:30:18;;;;;;;4.22;3.80;;;;;;;16.78;100.00;63737.78;5088502;28;20520;-80
2023/08/13 03:32:45;;;;;;;4.22;3.92;;;;;;;16.79;100.00;63733.19;5091529;28;20233;-79
2023/08/13 03:35:12;;;;;;;4.97;4.18;;;;;;;16.76;100.00;63732.63;5089192;28;20287;-77
2023/08/13 03:37:39;;;;;;;4.93;4.07;;;;;;;16.79;100.00;63738.81;5099480;28;20205;-78
2023/08/13 03:40:10;;;;;;;6.50;4.25;;;;;;;16.80;100.00;63737.31;5091664;28;20188;-79
2023/08/13 03:42:37;;;;;;;3.78;3.58;;;;;;;16.73;100.00;63726.94;5087711;28;20519;-77
2023/08/13 03:45:04;;;;;;;4.18;3.88;;;;;;;16.72;100.00;63723.81;5087938;28;20271;-79
2023/08/13 03:47:31;;;;;;;4.70;4.30;;;;;;;16.61;100.00;63717.53;5096697;28;20230;-78
2023/08/13 03:49:59;;;;;;;5.45;5.05;;;;;;;16.63;100.00;63719.63;5094833;28;20234;-79
2023/08/13 03:52:26;;;;;;;4.85;4.55;;;;;;;16.78;100.00;63737.28;5090279;28;20203;-78
2023/08/13 03:54:53;;;;;;;4.47;4.15;;;;;;;16.77;100.00;63731.63;5091638;28;20235;-78
2023/08/13 03:57:21;;;;;;;4.70;4.45;;;;;;;16.70;100.00;63724.34;5087630;28;20204;-79
2023/08/13 03:59:48;;;;;;;5.60;4.95;;;;;;;16.78;100.00;63734.69;5107724;28;20284;-79
2023/08/13 04:02:17;;;;;;;4.80;4.50;;;;;;;16.87;100.00;63744.59;5110468;28;20207;-79
2023/08/13 04:04:44;;;;;;;4.75;4.45;;;;;;;16.97;100.00;63757.03;5106928;28;20387;-78
2023/08/13 04:07:11;;;;;;;6.65;4.70;;;;;;;17.03;100.00;63763.81;5088376;28;20203;-79
2023/08/13 04:09:38;;;;;;;4.90;4.55;;;;;;;17.16;100.00;63774.25;5090898;28;20289;-78
2023/08/13 04:12:05;;;;;;;4.65;4.25;;;;;;;17.21;100.00;63779.97;5088152;28;20215;-78
2023/08/13 04:14:34;;;;;;;4.57;4.28;;;;;;;17.25;100.00;63784.16;5088465;28;20232;-78
2023/08/13 04:17:01;;;;;;;4.78;4.35;;;;;;;17.27;100.00;63785.72;5101140;28;20286;-78
2023/08/13 04:19:28;;;;;;;4.30;4.00;;;;;;;17.34;100.00;63793.50;5093447;28;20230;-79
2023/08/13 04:21:55;;;;;;;4.72;4.00;;;;;;;17.46;100.00;63807.53;5108078;28;20195;-79
2023/08/13 04:24:22;;;;;;;6.75;4.28;;;;;;;17.56;100.00;63815.41;5109834;28;20228;-79
2023/08/13 04:26:49;;;;;;;5.45;4.88;;;;;;;17.49;100.00;63815.84;5091152;28;20211;-80
2023/08/13 04:29:20;;;;;;;5.32;4.72;;;;;;;17.59;100.00;63815.94;5088872;28;20216;-81
2023/08/13 04:31:48;;;;;;;5.25;4.85;;;;;;;17.65;100.00;63824.78;5090333;28;20211;-79
2023/08/13 04:34:19;;;;;;;5.10;4.05;;;;;;;17.58;100.00;63818.00;5102815;28;20230;-78
2023/08/13 04:36:47;;;;;;;4.90;4.60;;;;;;;17.71;100.00;63833.59;5108642;28;20382;-79
2023/08/13 04:39:14;;;;;;;5.45;4.47;;;;;;;17.79;100.00;63834.19;5111321;28;20223;-79
2023/08/13 04:41:42;;;;;;;5.43;4.53;;;;;;;17.92;100.00;63850.84;5097936;28;20200;-79
2023/08/13 04:44:09;;;;;;;4.32;4.03;;;;;;;18.04;100.00;63865.91;5088446;28;20224;-79
2023/08/13 04:46:36;;;;;;;5.78;4.50;;;;;;;18.00;100.00;63863.81;5106498;28;20237;-79
2023/08/13 04:49:05;;;;;;;4.80;4.50;;;;;;;18.24;100.00;63881.59;5109742;28;20222;-80
2023/08/13 04:51:32;;;;;;;4.78;4.30;;;;;;;18.04;100.00;63865.91;5089762;28;20202;-80
2023/08/13 04:53:59;;;;;;;4.88;4.43;;;;;;;18.21;100.00;63883.09;5090078;28;20239;-80
2023/08/13 04:56:26;;;;;;;4.75;4.35;;;;;;;18.17;100.00;63879.44;5092744;28;20203;-80
2023/08/13 04:58:53;;;;;;;7.15;5.30;;;;;;;18.16;100.00;63880.47;5089065;28;20559;-77
2023/08/13 05:01:21;;;;;;;5.00;4.40;;;;;;;18.23;99.21;63885.19;5093184;28;20195;-79
2023/08/13 05:03:48;;;;;;;5.47;4.97;;;;;;;18.23;97.09;63885.19;5110822;28;20223;-79
2023/08/13 05:06:17;;;;;;;5.65;4.75;;;;;;;18.35;97.29;63895.63;5095960;28;20437;-78
2023/08/13 05:08:44;;;;;;;5.07;4.53;;;;;;;18.36;98.13;63896.16;5091576;28;20219;-80
2023/08/13 05:11:11;;;;;;;5.03;4.65;;;;;;;18.54;97.19;63917.50;5091977;28;20206;-79
2023/08/13 05:13:39;;;;;;;5.43;5.03;;;;;;;18.66;94.59;63932.06;5090542;28;20236;-79
2023/08/13 05:16:06;;;;;;;5.10;4.70;;;;;;;18.83;94.27;63945.16;5090606;28;20219;-78
2023/08/13 05:18:33;;;;;;;4.43;4.10;;;;;;;18.85;93.90;63952.41;5106706;28;20221;-79
2023/08/13 05:21:00;;;;;;;7.45;4.90;;;;;;;18.94;93.76;63956.09;5093365;28;20204;-78
2023/08/13 05:23:28;;;;;;;5.18;4.68;;;;;;;19.00;92.68;63957.19;5093442;28;20254;-79
2023/08/13 05:25:56;;;;;;;5.35;4.43;;;;;;;19.09;91.34;63974.84;5095483;28;20267;-79
2023/08/13 05:28:23;;;;;;;4.65;4.25;;;;;;;19.45;87.77;64012.41;5094851;28;20313;-78
2023/08/13 05:30:51;;;;;;;4.28;3.97;;;;;;;19.60;85.73;64029.59;5095506;28;20403;-79
2023/08/13 05:33:18;;;;;;;4.85;4.30;;;;;;;19.59;85.66;64025.97;5092804;28;20250;-78
2023/08/13 05:35:45;;;;;;;4.78;4.40;;;;;;;19.66;84.86;64033.25;5104331;28;20516;-79
2023/08/13 05:38:12;;;;;;;5.20;4.40;;;;;;;19.80;83.23;64042.69;5109611;28;20226;-80
2023/08/13 05:40:40;;;;;;;3.88;3.67;;;;;;;19.77;84.07;64047.84;5114305;28;20243;-78
2023/08/13 05:43:07;;;;;;;5.10;4.20;;;;;;;19.76;84.13;64043.69;5106368;28;20240;-78
2023/08/13 05:45:34;;;;;;;4.40;4.05;;;;;;;19.89;83.87;64059.84;5094444;28;20251;-78
2023/08/13 05:48:01;;;;;;;4.47;4.18;;;;;;;19.98;81.73;64069.75;5090529;28;20211;-79
2023/08/13 05:50:29;;;;;;;4.40;4.00;;;;;;;20.07;80.70;64076.53;5091826;28;20218;-78
2023/08/13 05:52:56;;;;;;;5.25;4.75;;;;;;;20.24;79.86;64096.88;5090974;28;20203;-79
2023/08/13 05:55:23;;;;;;;4.15;3.65;;;;;;;20.47;78.11;64120.38;5095003;28;20582;-79
2023/08/13 05:57:51;;;;;;;3.97;3.78;;;;;;;20.47;75.80;64120.38;5113996;28;20206;-79
2023/08/13 06:00:19;;;;;;;4.25;4.00;;;;;;;20.54;76.29;64125.09;5109124;28;20203;-79
2023/08/13 06:02:46;;;;;;;4.45;3.80;;;;;;;20.69;74.94;64141.28;5099578;28;20204;-79
2023/08/13 06:05:13;;;;;;;4.28;3.83;;;;;;;20.75;73.33;64149.59;5102159;28;20211;-79
2023/08/13 06:07:40;;;;;;;4.10;3.78;;;;;;;20.80;73.04;64157.41;5110760;28;20199;-78
2023/08/13 06:10:08;;;;;;;4.35;4.05;;;;;;;20.99;72.18;64176.75;5104696;28;20298;-78
2023/08/13 06:12:35;;;;;;;3.83;3.55;;;;;;;21.05;72.31;64180.97;5092232;28;20246;-77
2023/08/13 06:15:09;;;;;;;3.65;3.45;;;;;;;21.06;69.75;64182.00;5106542;28;20223;-80
2023/08/13 06:17:37;;;;;;;3.38;3.17;;;;;;;21.05;68.62;64180.97;5110701;28;20202;-79
2023/08/13 06:20:05;;;;;;;4.28;4.00;;;;;;;21.13;66.35;64188.78;5107204;28;20204;-79
2023/08/13 06:22:33;;;;;;;4.97;3.45;;;;;;;21.11;65.17;64184.09;5093951;28;20218;-78
2023/08/13 06:25:00;;;;;;;4.25;3.88;;;;;;;21.01;65.34;64174.19;5092481;28;20215;-78
2023/08/13 06:27:27;;;;;;;6.25;3.60;;;;;;;20.95;64.99;64165.31;5090729;28;20364;-79
2023/08/13 06:29:54;;;;;;;3.80;3.50;;;;;;;21.20;65.14;64194.03;5090652;28;20257;-79
2023/08/13 06:32:22;;;;;;;4.18;3.70;;;;;;;21.42;63.79;64219.59;5090686;28;20206;-79
2023/08/13 06:34:49;;;;;;;3.90;3.63;;;;;;;21.56;62.50;64229.03;5090660;28;20235;-78
2023/08/13 06:37:17;;;;;;;4.13;3.83;;;;;;;21.67;64.60;64240.00;5093696;28;20214;-77
2023/08/13 06:39:44;;;;;;;3.85;3.65;;;;;;;21.78;62.61;64254.63;5113252;28;20595;-78
2023/08/13 06:42:11;;;;;;;4.68;4.28;;;;;;;21.78;61.05;64254.09;5110738;28;20199;-78
2023/08/13 06:44:38;;;;;;;4.35;3.78;;;;;;;21.71;61.43;64241.59;5112768;28;20215;-78
2023/08/13 06:47:06;;;;;;;3.90;3.60;;;;;;;21.78;62.19;64256.69;5102935;28;20203;-80
2023/08/13 06:49:35;;;;;;;4.97;3.72;;;;;;;21.95;60.10;64271.88;5089658;28;20246;-79
2023/08/13 06:52:02;;;;;;;4.28;3.20;;;;;;;22.10;61.07;64281.84;5095708;28;20227;-81
2023/08/13 06:54:29;;;;;;;4.82;4.32;;;;;;;22.15;60.24;64289.66;5092497;28;20234;-79
2023/08/13 06:56:56;;;;;;;3.80;3.50;;;;;;;22.25;58.60;64305.81;5097495;28;20199;-79
2023/08/13 06:59:23;;;;;;;4.45;3.45;;;;;;;22.34;56.71;64312.13;5112584;28;20223;-78
2023/08/13 07:01:50;;;;;;;5.47;3.42;;;;;;;22.40;56.00;64323.59;5106586;28;20199;-80
2023/08/13 07:04:18;;;;;;;4.15;3.47;;;;;;;22.48;57.25;64321.56;5092637;28;20234;-81
2023/08/13 07:06:47;;;;;;;4.15;3.60;;;;;;;22.62;55.59;64341.91;5100114;28;20201;-80
2023/08/13 07:09:20;;;;;;;3.85;3.25;;;;;;;22.76;56.31;64356.06;5095450;28;20244;-78
2023/08/13 07:11:47;;;;;;;3.45;3.25;;;;;;;22.76;54.33;64353.97;5092717;28;20283;-80
2023/08/13 07:14:17;;;;;;;3.60;3.25;;;;;;;22.89;54.11;64367.56;5091986;28;20235;-79
2023/08/13 07:16:45;;;;;;;3.28;3.08;;;;;;;22.81;53.97;64361.28;5099333;28;20191;-79
2023/08/13 07:19:12;;;;;;;4.18;3.58;;;;;;;22.94;55.12;64374.88;5099924;28;20418;-79
2023/08/13 07:21:40;;;;;;;4.32;3.75;;;;;;;22.88;55.22;64368.59;5095377;28;20238;-79
2023/08/13 07:24:10;;;;;;;4.35;3.30;;;;;;;23.22;55.06;64409.34;5094919;28;20232;-80
2023/08/13 07:26:38;;;;;;;3.38;3.13;;;;;;;23.35;54.19;64417.78;5092294;28;20212;-81
2023/08/13 07:29:08;;;;;;;3.03;2.92;;;;;;;23.23;53.42;64402.09;5092996;28;20255;-80
2023/08/13 07:31:35;;;;;;;3.10;2.90;;;;;;;23.34;55.28;64419.31;5102944;28;20207;-82
2023/08/13 07:34:03;;;;;;;3.20;3.05;;;;;;;23.53;52.95;64436.59;5095472;28;20453;-80
2023/08/13 07:36:32;;;;;;;3.35;2.97;;;;;;;23.42;53.18;64427.16;5107112;28;20195;-81
2023/08/13 07:39:00;;;;;;;3.45;3.25;;;;;;;23.52;51.86;64438.16;5113657;28;20226;-82
2023/08/13 07:41:28;;;;;;;3.25;3.05;;;;;;;23.60;52.13;64446.53;5091390;28;20203;-80
2023/08/13 07:43:55;;;;;;;3.35;3.05;;;;;;;23.49;51.39;64435.00;5089796;28;20224;-81
2023/08/13 07:46:22;;;;;;;6.35;3.03;;;;;;;23.55;52.26;64441.31;5092955;28;20203;-79
2023/08/13 07:48:50;;;;;;;4.05;3.72;;;;;;;23.90;52.08;64474.81;5091186;28;20224;-82
2023/08/13 07:51:17;;;;;;;3.55;3.30;;;;;;;23.93;50.92;64481.06;5102159;28;20207;-81
2023/08/13 07:53:44;;;;;;;4.28;3.20;;;;;;;23.98;49.42;64477.97;5108197;28;20223;-80
2023/08/13 07:56:12;;;;;;;3.35;3.08;;;;;;;24.02;49.83;64490.00;5112869;28;20267;-83
2023/08/13 07:58:40;;;;;;;3.25;3.05;;;;;;;24.13;49.86;64498.34;5111002;28;20223;-82
2023/08/13 08:01:08;;;;;;;5.32;3.00;;;;;;;24.17;51.10;64499.94;5092372;28;20386;-81
2023/08/13 08:03:35;;;;;;;3.58;3.35;;;;;;;24.39;50.36;64531.31;5096730;28;20226;-80
2023/08/13 08:06:02;;;;;;;3.15;2.92;;;;;;;24.53;49.88;64540.25;5097858;28;20223;-81
2023/08/13 08:08:29;;;;;;;3.10;2.90;;;;;;;24.73;49.25;64564.31;5094402;28;20231;-80
2023/08/13 08:10:57;;;;;;;3.17;2.97;;;;;;;24.86;48.88;64572.22;5093733;28;20203;-80
2023/08/13 08:13:28;;;;;;;3.42;3.22;;;;;;;24.74;47.99;64564.84;5107147;28;20215;-84
2023/08/13 08:15:56;;;;;;;4.43;2.80;;;;;;;24.91;48.11;64580.06;5092466;28;20223;-80
2023/08/13 08:18:24;;;;;;;4.45;3.45;;;;;;;25.16;48.62;64605.72;5096872;28;20247;-80
2023/08/13 08:20:51;;;;;;;3.10;2.90;;;;;;;25.12;47.39;64602.06;5109244;28;20272;-80
2023/08/13 08:23:19;;;;;;;3.33;3.03;;;;;;;25.31;46.66;64624.56;5114019;28;20219;-81
2023/08/13 08:25:46;;;;;;;4.15;3.20;;;;;;;25.22;46.93;64614.59;5112520;28;20199;-80
2023/08/13 08:28:16;;;;;;;3.58;3.28;;;;;;;25.39;46.45;64627.75;5110436;28;20274;-82
2023/08/13 08:30:43;;;;;;;3.28;3.08;;;;;;;25.45;45.75;64636.66;5102882;28;20215;-80
2023/08/13 08:33:12;;;;;;;3.00;2.80;;;;;;;25.49;43.72;64648.16;5088807;28;20215;-81
2023/08/13 08:35:39;;;;;;;3.50;3.17;;;;;;;25.44;46.05;64635.59;5095784;28;20234;-80
2023/08/13 08:38:08;;;;;;;2.70;2.50;;;;;;;25.50;44.59;64641.88;5110709;28;20278;-80
2023/08/13 08:40:35;;;;;;;3.35;3.08;;;;;;;25.21;45.32;64611.50;5099817;28;20207;-81
2023/08/13 08:43:04;;;;;;;3.28;2.85;;;;;;;25.21;45.02;64614.09;5090353;28;20222;-81
2023/08/13 08:45:32;;;;;;;2.80;2.70;;;;;;;25.18;44.96;64608.31;5108672;28;20214;-80
2023/08/13 08:48:00;;;;;;;3.03;2.92;;;;;;;25.13;45.18;64605.69;5109197;28;20222;-79
2023/08/13 08:50:30;;;;;;;3.20;2.70;;;;;;;24.97;46.07;64586.84;5099662;28;20226;-81
2023/08/13 08:52:58;;;;;;;3.13;2.92;;;;;;;25.05;45.28;64599.94;5104104;28;20226;-82
2023/08/13 08:55:26;;;;;;;3.25;3.05;;;;;;;25.32;46.01;64628.22;5094748;28;20223;-81
2023/08/13 08:57:54;;;;;;;3.70;3.47;;;;;;;25.54;46.27;64645.56;5094212;28;20207;-79
2023/08/13 09:00:23;;;;;;;3.10;2.83;;;;;;;25.75;44.38;64662.84;5096580;28;20200;-82
2023/08/13 09:02:50;;;;;;;3.33;3.13;;;;;;;25.89;44.64;64685.34;5092295;28;20200;-79
2023/08/13 09:05:18;;;;;;;3.10;2.90;;;;;;;25.78;43.12;64673.31;5108702;28;20195;-82
2023/08/13 09:07:47;;;;;;;2.88;2.67;;;;;;;26.11;45.25;64705.31;5110281;28;20191;-80
2023/08/13 09:10:15;;;;;;;3.53;3.33;;;;;;;26.30;41.91;64725.22;5105997;28;20227;-82
2023/08/13 09:12:43;;;;;;;4.07;2.63;;;;;;;26.30;42.09;64722.59;5093912;28;20385;-81
2023/08/13 09:15:12;;;;;;;2.78;2.67;;;;;;;26.47;42.78;64745.66;5108076;28;20222;-79
2023/08/13 09:17:40;;;;;;;3.60;3.30;;;;;;;26.56;42.17;64755.09;5094331;28;20251;-80
2023/08/13 09:20:11;;;;;;;2.63;2.47;;;;;;;26.61;41.09;64757.22;5096064;28;20211;-79
2023/08/13 09:22:38;;;;;;;2.83;2.67;;;;;;;26.74;42.47;64770.84;5094481;28;20216;-80
2023/08/13 09:25:10;;;;;;;2.92;2.80;;;;;;;26.54;40.45;64753.00;5105614;28;20257;-80
2023/08/13 09:27:38;;;;;;;2.88;2.67;;;;;;;26.62;42.17;64755.63;5093094;28;20196;-80
2023/08/13 09:30:11;;;;;;;3.20;3.00;;;;;;;26.69;40.88;64765.63;5104870;28;20188;-82
2023/08/13 09:32:38;;;;;;;3.05;2.85;;;;;;;26.79;41.21;64778.72;5112659;28;20218;-81
2023/08/13 09:35:06;;;;;;;3.25;2.90;;;;;;;26.64;41.45;64758.28;5115492;28;20235;-81
2023/08/13 09:37:34;;;;;;;2.90;2.80;;;;;;;26.86;41.49;64783.97;5114386;28;20211;-80
2023/08/13 09:40:01;;;;;;;2.60;2.40;;;;;;;26.72;39.93;64771.91;5092821;28;20557;-81
2023/08/13 09:42:33;;;;;;;2.95;2.85;;;;;;;26.74;42.78;64770.84;5091427;28;20195;-81
2023/08/13 09:45:03;;;;;;;3.03;2.92;;;;;;;27.13;41.24;64811.75;5093785;28;20223;-80
2023/08/13 09:47:36;;;;;;;2.80;2.70;;;;;;;27.08;38.84;64801.81;5104681;28;20191;-82
2023/08/13 09:50:04;;;;;;;2.75;2.65;;;;;;;26.59;39.92;64755.09;5112180;28;20218;-79
2023/08/13 09:52:33;;;;;;;2.95;2.75;;;;;;;27.32;39.42;64836.94;5114571;28;20199;-81
2023/08/13 09:55:08;;;;;;;3.90;2.67;;;;;;;27.77;40.19;64878.94;5116272;28;20219;-83
2023/08/13 09:57:40;;;;;;;3.08;2.90;;;;;;;28.39;38.95;64946.66;5115169;28;20224;-83
2023/08/13 10:00:08;;;;;;;3.20;2.70;;;;;;;28.89;37.43;64990.28;5108882;28;20526;-81
2023/08/13 10:02:39;;;;;;;3.20;2.95;;;;;;;29.22;35.56;65030.75;5116009;28;20217;-82
2023/08/13 10:05:07;;;;;;;3.40;3.10;;;;;;;29.22;36.59;65032.84;5109953;28;20234;-83
2023/08/13 10:07:36;;;;;;;3.35;3.05;;;;;;;29.02;36.96;65011.81;5106894;28;20392;-82
2023/08/13 10:10:05;;;;;;;3.05;2.95;;;;;;;28.87;37.07;64996.06;5115133;28;20195;-82
2023/08/13 10:12:33;;;;;;;3.20;2.92;;;;;;;28.86;37.16;64992.38;5095783;28;20196;-82
2023/08/13 10:15:02;;;;;;;3.05;2.85;;;;;;;28.97;36.18;65001.31;5104502;28;20237;-83
2023/08/13 10:17:30;;;;;;;2.75;2.65;;;;;;;28.97;36.06;65007.09;5114058;28;20200;-83
2023/08/13 10:19:57;;;;;;;3.65;3.33;;;;;;;29.18;34.66;65023.41;5107520;28;20528;-82
2023/08/13 10:22:33;;;;;;;7.57;3.38;;;;;;;29.18;35.11;65033.88;5108647;28;20196;-81
2023/08/13 10:25:01;;;;;;;2.85;2.40;;;;;;;29.38;35.19;65052.81;5102529;28;20238;-84
2023/08/13 10:27:29;;;;;;;3.45;3.25;;;;;;;29.41;35.33;65055.94;5093400;28;20196;-82
2023/08/13 10:30:11;;;;;;;3.10;2.90;;;;;;;29.49;35.53;65064.34;5099165;28;20273;-82
2023/08/13 10:32:39;;;;;;;3.75;2.60;;;;;;;29.10;34.88;65017.59;5099702;28;20192;-81
2023/08/13 10:35:23;;;;;;;3.00;2.90;;;;;;;28.33;37.25;64937.22;5092169;28;20227;-81
2023/08/13 10:37:52;;;;;;;3.80;2.85;;;;;;;27.94;37.83;64896.78;5090210;28;20283;-81
2023/08/13 10:40:20;;;;;;;2.90;2.70;;;;;;;28.02;38.19;64905.22;5094726;28;20409;-84
2023/08/13 10:42:52;;;;;;;3.58;3.38;;;;;;;28.16;39.12;64922.50;5105774;28;20192;-80
2023/08/13 10:45:25;;;;;;;4.80;3.33;;;;;;;28.31;39.22;64932.50;5107651;28;20204;-82
2023/08/13 10:47:55;;;;;;;3.15;2.92;;;;;;;28.26;38.24;64933.03;5100953;28;20319;-83
2023/08/13 10:50:31;;;;;;;2.90;2.70;;;;;;;28.53;38.62;64962.97;5093622;28;20212;-82
2023/08/13 10:53:09;;;;;;;2.92;2.80;;;;;;;28.74;38.35;64979.75;5094325;28;20230;-81
2023/08/13 10:55:39;;;;;;;3.00;2.80;;;;;;;29.10;37.77;65020.22;5093159;28;20549;-80
2023/08/13 10:58:23;;;;;;;2.95;2.85;;;;;;;29.39;36.01;65050.69;5093084;28;20396;-81
2023/08/13 11:01:03;;;;;;;2.78;2.67;;;;;;;29.55;36.31;65067.50;5111381;28;20248;-81
2023/08/13 11:03:37;;;;;;;2.95;2.75;;;;;;;29.70;36.06;65083.28;5111271;28;20556;-80
2023/08/13 11:06:06;;;;;;;3.47;3.20;;;;;;;29.61;35.36;65071.19;5119002;28;20187;-81
2023/08/13 11:08:46;;;;;;;2.92;2.75;;;;;;;29.86;35.50;65099.59;5102064;28;20270;-81
2023/08/13 11:11:20;;;;;;;4.90;3.08;;;;;;;29.19;35.83;65029.69;5100619;28;20535;-81
2023/08/13 11:13:54;;;;;;;2.85;2.75;;;;;;;29.03;35.66;65013.38;5099879;28;20241;-81
2023/08/13 11:16:27;;;;;;;3.22;3.03;;;;;;;28.78;37.30;64983.97;5105718;28;20287;-79
2023/08/13 11:18:58;;;;;;;3.40;3.20;;;;;;;28.97;37.79;65004.47;5109993;28;20233;-81
2023/08/13 11:21:35;;;;;;;4.18;3.47;;;;;;;28.87;37.18;64991.31;5097229;28;20219;-80
2023/08/13 11:24:04;;;;;;;3.30;3.08;;;;;;;29.25;36.78;65038.63;5104982;28;20310;-79
2023/08/13 11:26:34;;;;;;;4.05;3.47;;;;;;;28.84;36.79;64990.25;5090585;28;20259;-80
2023/08/13 11:29:01;;;;;;;3.35;3.15;;;;;;;28.79;37.85;64988.16;5113787;28;20219;-80
2023/08/13 11:31:30;;;;;;;5.50;3.50;;;;;;;29.28;38.51;65037.06;5100169;28;20200;-80
2023/08/13 11:33:58;;;;;;;3.33;3.13;;;;;;;29.14;37.72;65024.97;5105998;28;20223;-79
2023/08/13 11:36:26;;;;;;;3.50;3.30;;;;;;;29.28;38.38;65041.78;5106300;28;20253;-82
2023/08/13 11:38:53;;;;;;;3.22;3.13;;;;;;;29.70;37.94;65085.41;5108982;28;20226;-81